Time;durP1;ratioP1;P1;durP2;ratioP2;P2;SDS_P1;SDS_P2;PMS_P1;PMS_P2;Temp;Humidity;BMP_temperature;BMP_pressure;BME280_temperature;BME280_humidity;BME280_pressure;Samples;Min_cycle;Max_cycle;Signal;HPM_P1;HPM_P2
2022/01/21 00:04:54;;;;;;;31.93;18.90;;;;;;;;;;10490702;28;20548;-65
2022/01/21 00:09:54;;;;;;;27.43;18.80;;;;;;;;;;10492656;28;20036;-66
2022/01/21 00:14:55;;;;;;;32.57;19.00;;;;;;;;;;10491800;28;20090;-66
2022/01/21 00:30:08;;;;;;;30.70;18.73;;;;;;;;;;10491822;28;20056;-66
2022/01/21 00:30:34;;;;;;;;;;;;;;;;;;10492296;28;20021;-66
2022/01/21 00:35:35;;;;;;;30.83;18.30;;;;;;;;;;10491494;28;19934;-66
2022/01/21 00:40:35;;;;;;;27.20;18.97;;;;;;;;;;10485236;28;20440;-65
2022/01/21 00:45:36;;;;;;;26.70;18.30;;;;;;;;;;10490325;28;20464;-65
2022/01/21 00:50:37;;;;;;;27.98;17.83;;;;;;;;;;10491161;28;20031;-65
2022/01/21 00:55:37;;;;;;;23.60;16.77;;;;;;;;;;10491487;28;20070;-66
2022/01/21 01:00:38;;;;;;;27.88;18.42;;;;;;;;;;10494122;28;20021;-65
2022/01/21 01:05:38;;;;;;;26.57;16.90;;;;;;;;;;10498532;28;20028;-66
2022/01/21 01:21:10;;;;;;;23.52;16.95;;;;;;;;;;10498086;28;20021;-64
2022/01/21 01:31:30;;;;;;;22.30;16.63;;;;;;;;;;10498139;28;20426;-64
2022/01/21 01:36:30;;;;;;;27.90;18.00;;;;;;;;;;10497402;28;20021;-64
2022/01/21 01:41:37;;;;;;;23.90;17.08;;;;;;;;;;10494507;28;20517;-64
2022/01/21 01:51:58;;;;;;;25.92;17.45;;;;;;;;;;10497290;28;20025;-64
2022/01/21 01:56:58;;;;;;;23.85;17.27;;;;;;;;;;10496420;28;20024;-64
2022/01/21 02:02:03;;;;;;;24.08;16.60;;;;;;;;;;10495746;28;20032;-64
2022/01/21 02:07:03;;;;;;;22.02;15.80;;;;;;;;;;10496718;28;20036;-64
2022/01/21 02:12:06;;;;;;;23.25;16.10;;;;;;;;;;10496337;28;20021;-65
2022/01/21 02:17:18;;;;;;;25.88;16.30;;;;;;;;;;10497329;28;20031;-66
2022/01/21 02:22:19;;;;;;;24.98;16.48;;;;;;;;;;10495976;28;20400;-64
2022/01/21 02:27:20;;;;;;;22.90;16.95;;;;;;;;;;10495861;28;20256;-64
2022/01/21 02:32:22;;;;;;;26.15;17.02;;;;;;;;;;10495804;28;20585;-64
2022/01/21 02:37:22;;;;;;;28.35;17.60;;;;;;;;;;10495591;28;20028;-65
2022/01/21 02:42:23;;;;;;;23.10;16.98;;;;;;;;;;10492243;28;20029;-66
2022/01/21 02:47:23;;;;;;;26.13;16.60;;;;;;;;;;10491816;28;20101;-64
2022/01/21 02:52:27;;;;;;;21.33;16.03;;;;;;;;;;10494347;28;20437;-64
2022/01/21 02:57:28;;;;;;;25.40;16.23;;;;;;;;;;10495048;28;20528;-64
2022/01/21 03:02:28;;;;;;;19.83;15.73;;;;;;;;;;10494288;28;20033;-64
2022/01/21 03:07:29;;;;;;;23.60;16.53;;;;;;;;;;10494498;28;20086;-64
2022/01/21 03:12:29;;;;;;;24.65;16.52;;;;;;;;;;10493583;28;20465;-64
2022/01/21 03:17:30;;;;;;;24.13;15.97;;;;;;;;;;10493868;28;20490;-64
2022/01/21 03:22:30;;;;;;;24.52;16.40;;;;;;;;;;10493236;28;20545;-64
2022/01/21 03:27:31;;;;;;;23.17;15.80;;;;;;;;;;10492847;28;20035;-64
2022/01/21 03:32:31;;;;;;;24.15;16.63;;;;;;;;;;10493317;28;20388;-63
2022/01/21 03:37:31;;;;;;;23.98;15.98;;;;;;;;;;10493013;28;20027;-64
2022/01/21 03:42:32;;;;;;;23.50;14.95;;;;;;;;;;10493290;28;20032;-64
2022/01/21 03:47:32;;;;;;;23.65;15.57;;;;;;;;;;10489323;28;20020;-63
2022/01/21 03:52:33;;;;;;;20.80;14.60;;;;;;;;;;10493040;28;20023;-65
2022/01/21 03:57:33;;;;;;;25.07;15.40;;;;;;;;;;10489362;28;20796;-66
2022/01/21 04:02:33;;;;;;;20.63;15.20;;;;;;;;;;10492063;28;20486;-65
2022/01/21 04:07:34;;;;;;;23.97;15.53;;;;;;;;;;10491937;28;20429;-64
2022/01/21 04:12:34;;;;;;;26.02;14.88;;;;;;;;;;10492284;28;20568;-64
2022/01/21 04:17:35;;;;;;;19.92;15.48;;;;;;;;;;10492364;28;20028;-64
2022/01/21 04:22:36;;;;;;;22.67;14.52;;;;;;;;;;10491855;28;20067;-64
2022/01/21 04:27:37;;;;;;;21.38;14.95;;;;;;;;;;10491569;28;20451;-64
2022/01/21 04:32:37;;;;;;;20.73;14.75;;;;;;;;;;10491510;28;20040;-64
2022/01/21 04:37:44;;;;;;;20.45;15.32;;;;;;;;;;10491298;28;20516;-64
2022/01/21 04:48:04;;;;;;;19.08;14.90;;;;;;;;;;10491407;28;20024;-64
2022/01/21 04:53:05;;;;;;;21.23;15.07;;;;;;;;;;10491174;28;20040;-64
2022/01/21 04:58:06;;;;;;;19.95;14.85;;;;;;;;;;10486804;28;20036;-64
2022/01/21 05:03:06;;;;;;;20.57;14.30;;;;;;;;;;10488219;28;20028;-65
2022/01/21 05:08:10;;;;;;;19.00;14.40;;;;;;;;;;10490794;28;20793;-65
2022/01/21 05:13:10;;;;;;;21.55;14.20;;;;;;;;;;10490260;28;20566;-65
2022/01/21 05:18:11;;;;;;;22.20;14.15;;;;;;;;;;10490675;28;20104;-65
2022/01/21 05:23:11;;;;;;;19.00;13.63;;;;;;;;;;10490274;28;20099;-65
2022/01/21 05:28:12;;;;;;;18.73;14.43;;;;;;;;;;10490957;28;20430;-65
2022/01/21 05:33:13;;;;;;;23.23;14.57;;;;;;;;;;10490352;28;20041;-64
2022/01/21 05:38:13;;;;;;;17.48;13.25;;;;;;;;;;10490213;28;20024;-65
2022/01/21 05:43:14;;;;;;;16.70;12.80;;;;;;;;;;10490558;28;20112;-65
2022/01/21 05:48:14;;;;;;;19.98;13.68;;;;;;;;;;10493581;28;20453;-65
2022/01/21 05:53:14;;;;;;;19.77;14.37;;;;;;;;;;10497223;28;20107;-65
2022/01/21 05:58:15;;;;;;;17.60;13.48;;;;;;;;;;10495917;28;20434;-65
2022/01/21 06:03:16;;;;;;;20.58;14.95;;;;;;;;;;10493345;28;20475;-65
2022/01/21 06:08:16;;;;;;;18.27;13.55;;;;;;;;;;10496645;28;20029;-65
2022/01/21 06:13:18;;;;;;;20.20;13.70;;;;;;;;;;10492610;28;20262;-65
2022/01/21 06:18:18;;;;;;;18.95;13.00;;;;;;;;;;10495824;28;20457;-65
2022/01/21 06:23:19;;;;;;;15.93;12.97;;;;;;;;;;10495921;28;20047;-66
2022/01/21 06:28:20;;;;;;;17.35;12.48;;;;;;;;;;10495911;28;20520;-66
2022/01/21 06:33:23;;;;;;;17.80;13.57;;;;;;;;;;10496524;28;20028;-65
2022/01/21 06:38:24;;;;;;;20.48;12.63;;;;;;;;;;10495677;28;20456;-65
2022/01/21 06:43:24;;;;;;;17.42;12.25;;;;;;;;;;10495681;28;20039;-64
2022/01/21 06:48:25;;;;;;;16.50;12.00;;;;;;;;;;10494822;28;20433;-61
2022/01/21 06:53:25;;;;;;;17.38;12.20;;;;;;;;;;10495581;28;20503;-61
2022/01/21 06:58:26;;;;;;;18.67;12.43;;;;;;;;;;10494425;28;20104;-65
2022/01/21 07:03:26;;;;;;;16.77;12.10;;;;;;;;;;10493491;28;20499;-60
2022/01/21 07:08:27;;;;;;;20.80;13.73;;;;;;;;;;10493655;28;20990;-60
2022/01/21 07:13:28;;;;;;;21.85;12.02;;;;;;;;;;10491098;28;20032;-60
2022/01/21 07:18:28;;;;;;;20.23;12.87;;;;;;;;;;10492380;28;20033;-60
2022/01/21 07:23:29;;;;;;;20.67;12.07;;;;;;;;;;10488162;28;20565;-58
2022/01/21 07:28:29;;;;;;;19.25;12.27;;;;;;;;;;10493192;28;20103;-61
2022/01/21 07:33:29;;;;;;;18.83;12.27;;;;;;;;;;10493103;28;20114;-61
2022/01/21 07:38:30;;;;;;;19.42;11.43;;;;;;;;;;10492646;28;20505;-61
2022/01/21 07:43:30;;;;;;;20.10;12.43;;;;;;;;;;10491945;28;20024;-62
2022/01/21 07:48:31;;;;;;;24.43;12.40;;;;;;;;;;10491339;28;20548;-62
2022/01/21 07:53:31;;;;;;;28.03;18.50;;;;;;;;;;10492030;28;20058;-62
2022/01/21 07:58:32;;;;;;;33.17;21.55;;;;;;;;;;10492021;28;20441;-62
2022/01/21 08:03:32;;;;;;;42.72;22.80;;;;;;;;;;10491823;28;20025;-62
2022/01/21 08:08:33;;;;;;;34.95;20.92;;;;;;;;;;10491540;28;20028;-62
2022/01/21 08:13:33;;;;;;;36.55;23.00;;;;;;;;;;10489502;28;20032;-62
2022/01/21 08:18:35;;;;;;;39.50;23.90;;;;;;;;;;10490278;28;20055;-63
2022/01/21 08:23:39;;;;;;;53.63;30.75;;;;;;;;;;10488868;28;20477;-63
2022/01/21 08:28:40;;;;;;;61.90;33.92;;;;;;;;;;10491552;28;20036;-62
2022/01/21 08:33:40;;;;;;;64.00;34.35;;;;;;;;;;10488260;28;20024;-61
2022/01/21 08:38:40;;;;;;;58.73;36.37;;;;;;;;;;10491014;28;20032;-62
2022/01/21 08:43:41;;;;;;;69.37;38.83;;;;;;;;;;10488027;28;20765;-59
2022/01/21 08:48:41;;;;;;;95.40;53.83;;;;;;;;;;10487068;28;20449;-61
2022/01/21 08:53:44;;;;;;;113.80;68.03;;;;;;;;;;10489657;28;20519;-62
2022/01/21 08:58:46;;;;;;;86.15;49.85;;;;;;;;;;10488317;28;20032;-61
2022/01/21 09:03:46;;;;;;;111.93;62.20;;;;;;;;;;10488021;28;20033;-64
2022/01/21 09:08:46;;;;;;;110.40;62.40;;;;;;;;;;10487633;28;20020;-61
2022/01/21 09:13:47;;;;;;;162.82;89.30;;;;;;;;;;10488225;28;20437;-62
2022/01/21 09:18:50;;;;;;;129.00;72.40;;;;;;;;;;10490479;28;20087;-60
2022/01/21 09:23:52;;;;;;;107.00;63.65;;;;;;;;;;10493159;28;20037;-61
2022/01/21 09:28:53;;;;;;;110.50;62.83;;;;;;;;;;10492494;28;20037;-66
2022/01/21 09:33:53;;;;;;;111.00;63.95;;;;;;;;;;10497511;28;20032;-62
2022/01/21 09:38:54;;;;;;;136.63;78.50;;;;;;;;;;10494243;28;20476;-62
2022/01/21 09:43:55;;;;;;;113.80;63.93;;;;;;;;;;10494845;28;20059;-61
2022/01/21 09:49:07;;;;;;;126.72;75.50;;;;;;;;;;10496912;28;20484;-62
2022/01/21 09:54:07;;;;;;;110.93;67.60;;;;;;;;;;10492934;28;20111;-62
2022/01/21 09:59:08;;;;;;;131.53;79.57;;;;;;;;;;10495329;28;20103;-62
2022/01/21 10:04:09;;;;;;;126.00;71.95;;;;;;;;;;10492856;28;20465;-60
2022/01/21 10:09:10;;;;;;;141.45;76.85;;;;;;;;;;10493910;28;20181;-63
2022/01/21 10:14:10;;;;;;;157.68;87.25;;;;;;;;;;10495945;28;20025;-62
2022/01/21 10:19:11;;;;;;;193.67;102.83;;;;;;;;;;10495318;28;20031;-61
2022/01/21 10:24:14;;;;;;;139.63;72.60;;;;;;;;;;10495523;28;20101;-61
2022/01/21 10:29:16;;;;;;;110.20;60.63;;;;;;;;;;10496020;28;20028;-63
2022/01/21 10:34:25;;;;;;;109.53;59.35;;;;;;;;;;10494611;28;20115;-63
2022/01/21 10:39:30;;;;;;;104.82;57.80;;;;;;;;;;10491606;28;20024;-63
2022/01/21 10:44:30;;;;;;;92.38;50.97;;;;;;;;;;10491331;28;20499;-63
2022/01/21 10:49:31;;;;;;;96.88;50.95;;;;;;;;;;10494951;28;20100;-63
2022/01/21 10:54:31;;;;;;;95.25;54.35;;;;;;;;;;10494261;28;20410;-64
2022/01/21 10:59:43;;;;;;;99.33;59.50;;;;;;;;;;10495055;28;20044;-62
2022/01/21 11:04:44;;;;;;;97.30;57.40;;;;;;;;;;10494642;28;20449;-62
2022/01/21 11:09:44;;;;;;;100.93;60.15;;;;;;;;;;10493733;28;20380;-62
2022/01/21 11:15:05;;;;;;;92.87;56.00;;;;;;;;;;10491388;28;20020;-63
2022/01/21 11:20:16;;;;;;;95.43;56.97;;;;;;;;;;10492501;28;20429;-63
2022/01/21 11:25:16;;;;;;;124.82;74.68;;;;;;;;;;10491642;28;20070;-63
2022/01/21 11:30:17;;;;;;;114.45;68.78;;;;;;;;;;10492545;28;20027;-62
2022/01/21 11:35:17;;;;;;;96.73;57.97;;;;;;;;;;10492135;28;20032;-61
2022/01/21 11:40:19;;;;;;;84.57;50.95;;;;;;;;;;10491623;28;20438;-63
2022/01/21 11:50:29;;;;;;;100.55;60.72;;;;;;;;;;10488008;28;20025;-62
2022/01/21 11:55:33;;;;;;;92.00;54.42;;;;;;;;;;10489757;28;20028;-63
2022/01/21 12:00:35;;;;;;;80.63;50.47;;;;;;;;;;10490912;28;20043;-67
2022/01/21 12:05:35;;;;;;;92.00;56.40;;;;;;;;;;10489370;28;20102;-62
2022/01/21 12:10:38;;;;;;;83.50;49.63;;;;;;;;;;10490054;28;20482;-63
2022/01/21 12:20:45;;;;;;;70.35;42.47;;;;;;;;;;10490957;28;20116;-63
2022/01/21 12:26:10;;;;;;;63.60;39.03;;;;;;;;;;10489029;28;20052;-63
2022/01/21 12:31:15;;;;;;;67.18;36.85;;;;;;;;;;10490845;28;20448;-63
2022/01/21 12:36:17;;;;;;;58.25;36.65;;;;;;;;;;10489724;28;20025;-62
2022/01/21 12:41:17;;;;;;;54.15;34.40;;;;;;;;;;10490914;28;20035;-63
2022/01/21 12:46:30;;;;;;;58.65;34.05;;;;;;;;;;10490294;28;20383;-63
2022/01/21 12:56:31;;;;;;;56.38;34.38;;;;;;;;;;10488764;28;20583;-63
2022/01/21 13:01:36;;;;;;;54.50;32.80;;;;;;;;;;10495953;28;20021;-64
2022/01/21 13:06:38;;;;;;;52.17;32.08;;;;;;;;;;10496345;28;20409;-63
2022/01/21 13:11:43;;;;;;;53.53;32.28;;;;;;;;;;10497185;28;20514;-63
2022/01/21 13:16:43;;;;;;;49.97;31.10;;;;;;;;;;10495690;28;20174;-64
2022/01/21 13:21:47;;;;;;;54.57;32.33;;;;;;;;;;10496058;28;20142;-63
2022/01/21 13:26:51;;;;;;;55.42;31.02;;;;;;;;;;10493864;28;20051;-63
2022/01/21 13:31:54;;;;;;;48.80;30.17;;;;;;;;;;10496073;28;20028;-63
2022/01/21 13:36:59;;;;;;;49.50;30.27;;;;;;;;;;10495896;28;20036;-62
2022/01/21 13:42:09;;;;;;;48.05;29.90;;;;;;;;;;10497451;28;20028;-64
2022/01/21 13:47:40;;;;;;;48.05;28.70;;;;;;;;;;10497405;28;20024;-62
2022/01/21 13:52:45;;;;;;;53.13;28.15;;;;;;;;;;10493890;28;20526;-63
2022/01/21 13:57:45;;;;;;;42.13;28.65;;;;;;;;;;10492235;28;20032;-63
2022/01/21 14:03:03;;;;;;;44.97;27.27;;;;;;;;;;10494572;28;20560;-62
2022/01/21 14:08:11;;;;;;;44.45;27.33;;;;;;;;;;10495136;28;20036;-63
2022/01/21 14:13:12;;;;;;;39.88;26.63;;;;;;;;;;10493761;28;20111;-62
2022/01/21 14:18:12;;;;;;;38.97;25.98;;;;;;;;;;10493890;28;20116;-65
2022/01/21 14:23:14;;;;;;;41.00;26.52;;;;;;;;;;10494561;28;20059;-63
2022/01/21 14:28:15;;;;;;;37.55;24.88;;;;;;;;;;10494317;28;20066;-61
2022/01/21 14:33:15;;;;;;;40.27;24.93;;;;;;;;;;10493429;28;20029;-64
2022/01/21 14:38:19;;;;;;;40.92;25.58;;;;;;;;;;10493751;28;20119;-64
2022/01/21 14:43:21;;;;;;;35.97;23.67;;;;;;;;;;10494576;28;20029;-63
2022/01/21 14:48:23;;;;;;;40.60;24.05;;;;;;;;;;10491969;28;20097;-62
2022/01/21 14:53:24;;;;;;;41.38;24.85;;;;;;;;;;10494408;28;20032;-63
2022/01/21 14:58:26;;;;;;;39.45;24.17;;;;;;;;;;10491497;28;20024;-62
2022/01/21 15:03:28;;;;;;;42.20;25.17;;;;;;;;;;10492920;28;20024;-65
2022/01/21 15:08:35;;;;;;;34.30;22.20;;;;;;;;;;10490932;28;20056;-65
2022/01/21 15:18:55;;;;;;;37.38;23.80;;;;;;;;;;10493111;28;20029;-66
2022/01/21 15:23:56;;;;;;;38.67;23.33;;;;;;;;;;10492864;28;20044;-64
2022/01/21 15:29:05;;;;;;;42.83;22.98;;;;;;;;;;10492251;28;20473;-64
2022/01/21 15:34:07;;;;;;;38.40;21.97;;;;;;;;;;10490174;28;20484;-64
2022/01/21 15:39:08;;;;;;;37.45;22.23;;;;;;;;;;10491964;28;20020;-64
2022/01/21 15:44:09;;;;;;;37.67;21.30;;;;;;;;;;10492528;28;20103;-65
2022/01/21 15:49:11;;;;;;;46.45;21.48;;;;;;;;;;10492222;28;20478;-64
2022/01/21 15:54:13;;;;;;;37.17;20.42;;;;;;;;;;10491593;28;20028;-65
2022/01/21 15:59:13;;;;;;;33.15;19.30;;;;;;;;;;10492107;28;20027;-64
2022/01/21 16:04:15;;;;;;;36.35;20.08;;;;;;;;;;10491790;28;20391;-64
2022/01/21 16:09:16;;;;;;;32.10;20.25;;;;;;;;;;10485451;28;20460;-64
2022/01/21 16:14:18;;;;;;;28.42;19.20;;;;;;;;;;10491775;28;20025;-64
2022/01/21 16:19:19;;;;;;;38.13;19.38;;;;;;;;;;10488211;28;20044;-64
2022/01/21 16:24:20;;;;;;;32.75;18.77;;;;;;;;;;10490160;28;20052;-65
2022/01/21 16:29:20;;;;;;;32.58;18.00;;;;;;;;;;10490808;28;20109;-64
2022/01/21 16:34:21;;;;;;;29.27;18.20;;;;;;;;;;10489629;28;20121;-64
2022/01/21 16:39:21;;;;;;;30.92;17.70;;;;;;;;;;10488354;28;20457;-64
2022/01/21 16:44:22;;;;;;;33.72;16.42;;;;;;;;;;10490548;28;20043;-64
2022/01/21 16:49:22;;;;;;;27.27;14.75;;;;;;;;;;10488535;28;20046;-63
2022/01/21 16:54:23;;;;;;;31.92;14.95;;;;;;;;;;10489711;28;20207;-65
2022/01/21 16:59:24;;;;;;;21.27;13.30;;;;;;;;;;10489781;28;20058;-64
2022/01/21 17:04:25;;;;;;;22.02;13.82;;;;;;;;;;10489361;28;20479;-62
2022/01/21 17:09:25;;;;;;;22.30;12.40;;;;;;;;;;10486908;28;20028;-64
2022/01/21 17:14:26;;;;;;;19.77;13.07;;;;;;;;;;10489124;28;20021;-66
2022/01/21 17:19:27;;;;;;;19.25;12.30;;;;;;;;;;10485542;28;20203;-66
2022/01/21 17:24:27;;;;;;;18.52;12.15;;;;;;;;;;10486470;28;20064;-63
2022/01/21 17:29:27;;;;;;;21.03;11.53;;;;;;;;;;10489780;28;20021;-66
2022/01/21 17:34:28;;;;;;;25.63;12.80;;;;;;;;;;10488780;28;20111;-66
2022/01/21 17:39:28;;;;;;;27.52;12.75;;;;;;;;;;10488025;28;20032;-68
2022/01/21 17:44:30;;;;;;;24.07;12.13;;;;;;;;;;10493141;28;20035;-68
2022/01/21 17:49:31;;;;;;;27.33;12.25;;;;;;;;;;10497496;28;20450;-68
2022/01/21 17:54:31;;;;;;;20.40;10.77;;;;;;;;;;10496203;28;20028;-66
2022/01/21 17:59:32;;;;;;;21.85;11.95;;;;;;;;;;10496755;28;20438;-69
2022/01/21 18:04:32;;;;;;;25.40;12.25;;;;;;;;;;10496614;28;20033;-67
2022/01/21 18:09:37;;;;;;;25.33;12.70;;;;;;;;;;10496354;28;20399;-68
2022/01/21 18:14:38;;;;;;;17.30;10.90;;;;;;;;;;10496146;28;20520;-67
2022/01/21 18:19:47;;;;;;;23.13;11.52;;;;;;;;;;10491726;28;20024;-68
2022/01/21 18:24:47;;;;;;;24.70;12.00;;;;;;;;;;10494477;28;20097;-66
2022/01/21 18:29:48;;;;;;;19.97;11.33;;;;;;;;;;10491629;28;20021;-65
2022/01/21 18:34:48;;;;;;;22.25;10.60;;;;;;;;;;10493887;28;20442;-68
2022/01/21 18:39:49;;;;;;;18.88;10.98;;;;;;;;;;10493254;28;20025;-69
2022/01/21 18:45:02;;;;;;;20.93;10.80;;;;;;;;;;10490726;28;20032;-67
2022/01/21 18:50:03;;;;;;;20.40;11.27;;;;;;;;;;10492775;28;20441;-68
2022/01/21 18:55:04;;;;;;;16.17;9.82;;;;;;;;;;10491436;28;20032;-68
2022/01/21 19:00:06;;;;;;;19.50;10.07;;;;;;;;;;10491541;28;20025;-68
2022/01/21 19:05:13;;;;;;;20.60;10.00;;;;;;;;;;10493351;28;20428;-68
2022/01/21 19:10:21;;;;;;;15.90;8.88;;;;;;;;;;10493286;28;20108;-68
2022/01/21 19:15:21;;;;;;;21.17;9.52;;;;;;;;;;10494061;28;20029;-67
2022/01/21 19:20:23;;;;;;;14.23;9.45;;;;;;;;;;10493849;28;20133;-68
2022/01/21 19:25:35;;;;;;;13.98;8.80;;;;;;;;;;10491494;28;20051;-68
2022/01/21 19:30:38;;;;;;;16.83;9.70;;;;;;;;;;10489825;28;20070;-67
2022/01/21 19:35:39;;;;;;;26.95;10.07;;;;;;;;;;10490376;28;20031;-67
2022/01/21 19:40:40;;;;;;;18.33;9.68;;;;;;;;;;10491942;28;20464;-67
2022/01/21 19:45:44;;;;;;;16.63;9.65;;;;;;;;;;10492605;28;20032;-67
2022/01/21 19:50:44;;;;;;;20.02;8.95;;;;;;;;;;10492362;28;20439;-67
2022/01/21 19:55:46;;;;;;;20.07;9.50;;;;;;;;;;10490389;28;20052;-68
2022/01/21 20:16:14;;;;;;;16.27;9.10;;;;;;;;;;10490644;28;19912;-68
2022/01/21 20:21:15;;;;;;;15.52;9.35;;;;;;;;;;10491065;28;20110;-67
2022/01/21 20:26:16;;;;;;;12.90;9.32;;;;;;;;;;10490892;28;20442;-67
2022/01/21 20:31:18;;;;;;;16.60;9.75;;;;;;;;;;10490424;28;20123;-68
2022/01/21 20:36:27;;;;;;;15.77;10.05;;;;;;;;;;10486509;28;20029;-66
2022/01/21 20:41:49;;;;;;;;;;;;;;;;;;10488491;28;20056;-67
2022/01/21 20:46:52;;;;;;;19.42;9.55;;;;;;;;;;10490848;28;19974;-67
2022/01/21 20:51:53;;;;;;;14.63;9.70;;;;;;;;;;10489891;28;20021;-67
2022/01/21 20:56:55;;;;;;;20.65;9.27;;;;;;;;;;10491079;28;20058;-68
2022/01/21 21:01:55;;;;;;;16.88;9.80;;;;;;;;;;10489573;28;20103;-64
2022/01/21 21:06:56;;;;;;;19.73;10.02;;;;;;;;;;10490351;28;20102;-67
2022/01/21 21:12:09;;;;;;;16.42;10.00;;;;;;;;;;10489702;28;20040;-67
2022/01/21 21:17:33;;;;;;;21.35;9.57;;;;;;;;;;10491212;28;20464;-68
2022/01/21 21:28:14;;;;;;;16.17;10.07;;;;;;;;;;10497354;28;20052;-65
2022/01/21 23:03:28;;;;;;;;;;;;;;;;;;10494416;28;20032;-67
2022/01/21 23:08:36;;;;;;;16.90;8.77;;;;;;;;;;10492719;28;20417;-66
2022/01/21 23:13:37;;;;;;;12.68;8.60;;;;;;;;;;10493668;28;20059;-64
2022/01/21 23:18:38;;;;;;;12.60;7.93;;;;;;;;;;10493727;28;20028;-65
2022/01/21 23:23:38;;;;;;;20.02;8.65;;;;;;;;;;10493295;28;20372;-64
2022/01/21 23:29:10;;;;;;;14.80;7.68;;;;;;;;;;10493784;28;20104;-64
2022/01/21 23:34:09;;;;;;;15.27;8.77;;;;;;;;;;10492790;28;20499;-65
2022/01/21 23:44:13;;;;;;;14.60;7.60;;;;;;;;;;10492254;28;20029;-68
2022/01/21 23:49:20;;;;;;;13.02;7.97;;;;;;;;;;10492622;28;20033;-64
2022/01/21 23:54:20;;;;;;;18.90;8.57;;;;;;;;;;10489218;28;20021;-68
2022/01/21 23:59:21;;;;;;;16.90;8.03;;;;;;;;;;10490724;28;20380;-65
